• Join FlightAware (Why Join?)
  • Login
  • US Flag GB Flag 
03:32 EST


 

Airport Tracker/Info


-or-


 

Live Flight TrackerFlight Track Log ✈ SKW5631 ✈ 03-May-2013 ✈ KSFO - KBUR

Flight Track Log - Related Links

Times and Time Zones

All times are in EDT time to prevent confusion due to time zone crossing. See the SKW5631 flight status page for this flight to view local times or setup timezone preferences in your user account.

Time Position Orientation Groundspeed Altitude Reporting Facility
EDT Latitude Longitude Course Direction KTS MPH feet Rate Location/Type
21:30 37.6500 -122.3667 133° Southeast 168 193 1,300  Level Northern Cal TRACON
21:31 37.6669 -122.3642 North 180 207 1,600 1,671 Climbing Oakland Center
21:32 37.7153 -122.3925 335° Northwest 231 266 3,500 1,854 Climbing Oakland Center
21:33 37.6742 -122.4600 232° Southwest 274 315 5,400 2,146 Climbing Oakland Center
21:34 37.3292 -122.2016 136° Southeast  Level FlightAware Approximate
21:34 37.5925 -122.4886 196° South 301 346 7,900  Level Oakland Center
21:35 37.2373 -122.0675 135° Southeast  Level FlightAware Approximate
21:35 37.5136 -122.4633 166° South 304 350 10,200  Level Oakland Center
21:36 37.1386 -121.9403 133° Southeast  Level FlightAware Approximate
21:36 37.4311 -122.4169 156° South 323 372 11,800  Level Oakland Center
21:37 37.3494 -122.3575 150° Southeast 345 397 13,800 1,659 Climbing Oakland Center
21:38 37.2792 -122.2744 137° Southeast 348 400 15,200 1,659 Climbing Oakland Center
21:39 37.1911 -122.1719 137° Southeast 360 414 17,200 1,707 Climbing Oakland Center
21:40 37.1142 -122.0867 139° Southeast 367 422 18,700 1,426 Climbing Oakland Center
21:41 37.0367 -121.9964 137° Southeast 378 435 20,100 1,268 Climbing Oakland Center
21:42 36.9569 -121.9061 138° Southeast 386 444 21,300 1,220 Climbing Oakland Center
21:43 36.8764 -121.8147 138° Southeast 392 451 22,600 1,033 Climbing Oakland Center
21:44 36.7956 -121.7317 141° Southeast 394 453 23,400 927 Climbing Oakland Center
21:45 36.7119 -121.6375 138° Southeast 403 464 24,500 1,016 Climbing Oakland Center
21:46 36.6197 -121.5144 133° Southeast 403 464 25,500 836 Climbing Oakland Center
21:47 36.5558 -121.3919 123° Southeast 416 479 26,200 694 Climbing Oakland Center
21:48 36.4711 -121.2925 137° Southeast 419 482 26,900 683 Climbing Oakland Center
21:49 36.3800 -121.1975 140° Southeast 424 488 27,600 634 Climbing Oakland Center
21:50 36.2897 -121.0986 139° Southeast 429 494 28,200 590 Climbing Oakland Center
21:51 36.1975 -121.0011 140° Southeast 434 499 28,800 689 Climbing Oakland Center
21:52 36.1050 -120.9044 140° Southeast 435 501 29,600 683 Climbing Oakland Center
21:53 36.0122 -120.8069 140° Southeast 436 502 30,200 683 Climbing Oakland Center
21:54 35.9200 -120.7111 140° Southeast 434 499 31,000 639 Climbing Oakland Center
21:55 35.8281 -120.6167 140° Southeast 432 497 31,500 541 Climbing Oakland Center
21:56 35.7178 -120.5031 140° Southeast 429 494 32,100 590 Climbing Oakland Center
21:57 35.6247 -120.4075 140° Southeast 431 496 32,700 439 Climbing Oakland Center
21:58 35.5317 -120.3119 140° Southeast 431 496 33,000 146 Climbing Oakland Center
21:59 35.4411 -120.2192 140° Southeast 438 504 33,000  Level Oakland Center
22:00 35.3411 -120.1150 140° Southeast 439 505 33,000 -347 Level Oakland Center
22:01 35.2472 -120.0206 141° Southeast 437 503 32,300 -836 Descending Los Angeles Center
22:02 35.1522 -119.9247 140° Southeast 439 505 31,300 -1,805 Descending Los Angeles Center
22:03 35.0597 -119.8197 137° Southeast 450 518 28,600 -2,634 Descending Los Angeles Center
22:04 34.9747 -119.7047 132° Southeast 457 526 25,900 -2,661 Descending Los Angeles Center
22:06 34.8933 -119.5936 132° Southeast 446 513 23,100 -2,710 Descending Los Angeles Center
22:07 34.8156 -119.4892 132° Southeast 426 490 20,300 -2,613 Descending Los Angeles Center
22:08 34.7408 -119.3886 132° Southeast 408 470 17,700 -2,439 Descending Los Angeles Center
22:09 34.6581 -119.2778 132° Southeast 378 435 15,300 -2,000 Descending Los Angeles Center
22:10 34.5936 -119.1936 133° Southeast 355 409 13,600 -1,645 Descending Los Angeles Center
22:11 34.5336 -119.1144 133° Southeast 336 387 11,900 -1,258 Descending Los Angeles Center
22:12 34.4775 -119.0394 132° Southeast 300 345 11,000 -537 Descending Los Angeles Center
22:13 34.4211 -118.9639 132° Southeast 302 348 10,800 -732 Descending Los Angeles Center
22:14 34.3675 -118.8869 130° Southeast 300 345 9,500 -1,452 Descending Los Angeles Center
22:15 34.3200 -118.8056 125° Southeast 295 339 7,800 -1,887 Descending Los Angeles Center
22:16 34.2658 -118.7181 127° Southeast 274 315 5,600 -1,839 Descending Los Angeles Center
22:17 34.2208 -118.6431 126° Southeast 275 316 4,000 -927 Descending Los Angeles Center
22:18 34.2031 -118.5750 108° East 239 275 3,700 -504 Descending Los Angeles Center
22:19 34.2000 -118.5000 93° East 178 205 2,900 -794 Descending Southern California TRACON
22:20 34.2000 -118.4333 90° East 166 191 1,900 -857 Descending Southern California TRACON
22:21 34.2000 -118.3833 90° East 151 174 1,100 -429 Descending Southern California TRACON
22:22 34.1981 -118.3481 94° East 172 198 1,100  Level Los Angeles Center
22:24 34.2000 -118.3500 140° Southeast  Level FlightAware Approximate